sensor_id;sensor_type;location;lat;lon;timestamp;temperature;humidity
12166;DHT22;6146;48.128;11.476;2024-02-23T00:01:15;7.60;99.90
12166;DHT22;6146;48.128;11.476;2024-02-23T00:03:41;7.60;99.90
12166;DHT22;6146;48.128;11.476;2024-02-23T00:06:06;7.60;99.90
12166;DHT22;6146;48.128;11.476;2024-02-23T00:08:34;7.60;99.90
12166;DHT22;6146;48.128;11.476;2024-02-23T00:10:59;7.50;99.90
12166;DHT22;6146;48.128;11.476;2024-02-23T00:13:25;7.50;99.90
12166;DHT22;6146;48.128;11.476;2024-02-23T00:15:51;7.40;99.90
12166;DHT22;6146;48.128;11.476;2024-02-23T00:18:17;7.40;99.90
12166;DHT22;6146;48.128;11.476;2024-02-23T00:20:42;7.50;99.90
12166;DHT22;6146;48.128;11.476;2024-02-23T00:23:08;7.40;99.90
12166;DHT22;6146;48.128;11.476;2024-02-23T00:25:33;7.40;99.90
12166;DHT22;6146;48.128;11.476;2024-02-23T00:27:59;7.40;99.90
12166;DHT22;6146;48.128;11.476;2024-02-23T00:30:24;7.30;99.90
12166;DHT22;6146;48.128;11.476;2024-02-23T00:32:50;7.30;99.90
12166;DHT22;6146;48.128;11.476;2024-02-23T00:35:16;7.30;99.90
12166;DHT22;6146;48.128;11.476;2024-02-23T00:37:41;7.30;99.90
12166;DHT22;6146;48.128;11.476;2024-02-23T00:40:07;7.30;99.90
12166;DHT22;6146;48.128;11.476;2024-02-23T00:42:34;7.30;99.90
12166;DHT22;6146;48.128;11.476;2024-02-23T00:45:00;7.50;99.90
12166;DHT22;6146;48.128;11.476;2024-02-23T00:47:26;7.30;99.90
12166;DHT22;6146;48.128;11.476;2024-02-23T00:49:52;7.20;99.90
12166;DHT22;6146;48.128;11.476;2024-02-23T00:52:17;7.30;99.90
12166;DHT22;6146;48.128;11.476;2024-02-23T00:54:43;7.30;99.90
12166;DHT22;6146;48.128;11.476;2024-02-23T00:57:08;7.20;99.90
12166;DHT22;6146;48.128;11.476;2024-02-23T00:59:34;7.20;99.90
12166;DHT22;6146;48.128;11.476;2024-02-23T01:01:59;7.20;99.90
12166;DHT22;6146;48.128;11.476;2024-02-23T01:04:25;7.20;99.90
12166;DHT22;6146;48.128;11.476;2024-02-23T01:06:51;7.20;99.90
12166;DHT22;6146;48.128;11.476;2024-02-23T01:09:16;7.20;99.90
12166;DHT22;6146;48.128;11.476;2024-02-23T01:11:48;7.30;99.90
12166;DHT22;6146;48.128;11.476;2024-02-23T01:14:14;7.20;99.90
12166;DHT22;6146;48.128;11.476;2024-02-23T01:16:39;7.20;99.90
12166;DHT22;6146;48.128;11.476;2024-02-23T01:19:05;7.20;99.90
12166;DHT22;6146;48.128;11.476;2024-02-23T01:21:31;7.10;99.90
12166;DHT22;6146;48.128;11.476;2024-02-23T01:23:56;7.20;99.90
12166;DHT22;6146;48.128;11.476;2024-02-23T01:26:25;7.20;99.90
12166;DHT22;6146;48.128;11.476;2024-02-23T01:28:51;7.20;99.90
12166;DHT22;6146;48.128;11.476;2024-02-23T01:31:16;7.20;99.90
12166;DHT22;6146;48.128;11.476;2024-02-23T01:33:42;7.20;99.90
12166;DHT22;6146;48.128;11.476;2024-02-23T01:36:08;7.20;99.90
12166;DHT22;6146;48.128;11.476;2024-02-23T01:38:34;7.10;99.90
12166;DHT22;6146;48.128;11.476;2024-02-23T01:41:00;7.10;99.90
12166;DHT22;6146;48.128;11.476;2024-02-23T01:43:25;7.20;99.90
12166;DHT22;6146;48.128;11.476;2024-02-23T01:45:51;7.20;99.90
12166;DHT22;6146;48.128;11.476;2024-02-23T01:48:18;7.10;99.90
12166;DHT22;6146;48.128;11.476;2024-02-23T01:50:44;7.00;99.90
12166;DHT22;6146;48.128;11.476;2024-02-23T01:53:11;7.00;99.90
12166;DHT22;6146;48.128;11.476;2024-02-23T01:55:41;6.90;99.90
12166;DHT22;6146;48.128;11.476;2024-02-23T01:58:07;6.90;99.90
12166;DHT22;6146;48.128;11.476;2024-02-23T02:00:34;6.90;99.90
12166;DHT22;6146;48.128;11.476;2024-02-23T02:03:00;6.80;99.90
12166;DHT22;6146;48.128;11.476;2024-02-23T02:05:26;6.80;99.90
12166;DHT22;6146;48.128;11.476;2024-02-23T02:07:53;6.70;99.90
12166;DHT22;6146;48.128;11.476;2024-02-23T02:10:24;6.70;99.90
12166;DHT22;6146;48.128;11.476;2024-02-23T02:12:50;6.70;99.90
12166;DHT22;6146;48.128;11.476;2024-02-23T02:15:15;6.70;99.90
12166;DHT22;6146;48.128;11.476;2024-02-23T02:17:41;6.70;99.90
12166;DHT22;6146;48.128;11.476;2024-02-23T02:20:12;6.60;99.90
12166;DHT22;6146;48.128;11.476;2024-02-23T02:22:38;6.60;99.90
12166;DHT22;6146;48.128;11.476;2024-02-23T02:25:03;6.60;99.90
12166;DHT22;6146;48.128;11.476;2024-02-23T02:27:29;6.60;99.90
12166;DHT22;6146;48.128;11.476;2024-02-23T02:29:55;6.60;99.90
12166;DHT22;6146;48.128;11.476;2024-02-23T02:32:20;6.60;99.90
12166;DHT22;6146;48.128;11.476;2024-02-23T02:34:46;6.60;99.90
12166;DHT22;6146;48.128;11.476;2024-02-23T02:37:11;6.60;99.90
12166;DHT22;6146;48.128;11.476;2024-02-23T02:39:37;6.70;99.90
12166;DHT22;6146;48.128;11.476;2024-02-23T02:42:02;6.70;99.90
12166;DHT22;6146;48.128;11.476;2024-02-23T02:44:28;6.70;99.90
12166;DHT22;6146;48.128;11.476;2024-02-23T02:46:59;6.70;99.90
12166;DHT22;6146;48.128;11.476;2024-02-23T02:49:24;6.70;99.90
12166;DHT22;6146;48.128;11.476;2024-02-23T02:51:50;6.70;99.90
12166;DHT22;6146;48.128;11.476;2024-02-23T02:54:16;6.70;99.90
12166;DHT22;6146;48.128;11.476;2024-02-23T02:56:43;6.70;99.90
12166;DHT22;6146;48.128;11.476;2024-02-23T02:59:09;6.70;99.90
12166;DHT22;6146;48.128;11.476;2024-02-23T03:01:35;6.70;99.90
12166;DHT22;6146;48.128;11.476;2024-02-23T03:04:01;6.70;99.90
12166;DHT22;6146;48.128;11.476;2024-02-23T03:06:27;6.70;99.90
12166;DHT22;6146;48.128;11.476;2024-02-23T03:08:52;6.70;99.90
12166;DHT22;6146;48.128;11.476;2024-02-23T03:11:18;6.70;99.90
12166;DHT22;6146;48.128;11.476;2024-02-23T03:13:43;6.70;99.90
12166;DHT22;6146;48.128;11.476;2024-02-23T03:16:16;6.70;99.90
12166;DHT22;6146;48.128;11.476;2024-02-23T03:18:42;6.60;99.90
12166;DHT22;6146;48.128;11.476;2024-02-23T03:21:07;6.60;99.90
12166;DHT22;6146;48.128;11.476;2024-02-23T03:23:37;6.60;99.90
12166;DHT22;6146;48.128;11.476;2024-02-23T03:26:03;6.60;99.90
12166;DHT22;6146;48.128;11.476;2024-02-23T03:28:29;6.60;99.90
12166;DHT22;6146;48.128;11.476;2024-02-23T03:30:54;6.60;99.90
12166;DHT22;6146;48.128;11.476;2024-02-23T03:33:20;6.60;99.90
12166;DHT22;6146;48.128;11.476;2024-02-23T03:35:45;6.60;99.90
12166;DHT22;6146;48.128;11.476;2024-02-23T03:38:11;6.50;99.90
12166;DHT22;6146;48.128;11.476;2024-02-23T03:40:36;6.50;99.90
12166;DHT22;6146;48.128;11.476;2024-02-23T03:43:03;6.50;99.90
12166;DHT22;6146;48.128;11.476;2024-02-23T03:45:28;6.50;99.90
12166;DHT22;6146;48.128;11.476;2024-02-23T03:47:54;6.40;99.90
12166;DHT22;6146;48.128;11.476;2024-02-23T03:50:20;6.40;99.90
12166;DHT22;6146;48.128;11.476;2024-02-23T03:52:45;6.40;99.90
12166;DHT22;6146;48.128;11.476;2024-02-23T03:55:11;6.30;99.90
12166;DHT22;6146;48.128;11.476;2024-02-23T03:57:37;6.30;99.90
12166;DHT22;6146;48.128;11.476;2024-02-23T04:00:03;6.20;99.90
12166;DHT22;6146;48.128;11.476;2024-02-23T04:02:29;6.10;99.90
12166;DHT22;6146;48.128;11.476;2024-02-23T04:04:54;6.10;99.90
12166;DHT22;6146;48.128;11.476;2024-02-23T04:07:20;6.10;99.90
12166;DHT22;6146;48.128;11.476;2024-02-23T04:09:46;6.10;99.90
12166;DHT22;6146;48.128;11.476;2024-02-23T04:12:18;6.10;99.90
12166;DHT22;6146;48.128;11.476;2024-02-23T04:14:43;6.10;99.90
12166;DHT22;6146;48.128;11.476;2024-02-23T04:17:09;6.00;99.90
12166;DHT22;6146;48.128;11.476;2024-02-23T04:19:37;6.00;99.90
12166;DHT22;6146;48.128;11.476;2024-02-23T04:22:03;6.00;99.90
12166;DHT22;6146;48.128;11.476;2024-02-23T04:24:29;6.00;99.90
12166;DHT22;6146;48.128;11.476;2024-02-23T04:26:54;5.90;99.90
12166;DHT22;6146;48.128;11.476;2024-02-23T04:29:20;5.90;99.90
12166;DHT22;6146;48.128;11.476;2024-02-23T04:31:45;5.80;99.90
12166;DHT22;6146;48.128;11.476;2024-02-23T04:34:11;5.80;99.90
12166;DHT22;6146;48.128;11.476;2024-02-23T04:36:36;5.80;99.90
12166;DHT22;6146;48.128;11.476;2024-02-23T04:39:02;5.70;99.90
12166;DHT22;6146;48.128;11.476;2024-02-23T04:41:28;5.70;99.90
12166;DHT22;6146;48.128;11.476;2024-02-23T04:43:53;5.70;99.90
12166;DHT22;6146;48.128;11.476;2024-02-23T04:46:25;5.70;99.90
12166;DHT22;6146;48.128;11.476;2024-02-23T04:48:50;5.70;99.90
12166;DHT22;6146;48.128;11.476;2024-02-23T04:51:16;5.70;99.90
12166;DHT22;6146;48.128;11.476;2024-02-23T04:53:42;5.60;99.90
12166;DHT22;6146;48.128;11.476;2024-02-23T04:56:08;5.60;99.90
12166;DHT22;6146;48.128;11.476;2024-02-23T04:58:34;5.60;99.90
12166;DHT22;6146;48.128;11.476;2024-02-23T05:00:59;5.60;99.90
12166;DHT22;6146;48.128;11.476;2024-02-23T05:03:25;5.60;99.90
12166;DHT22;6146;48.128;11.476;2024-02-23T05:05:51;5.50;99.90
12166;DHT22;6146;48.128;11.476;2024-02-23T05:08:20;5.40;99.90
12166;DHT22;6146;48.128;11.476;2024-02-23T05:10:48;5.20;99.90
12166;DHT22;6146;48.128;11.476;2024-02-23T05:13:14;5.20;99.90
12166;DHT22;6146;48.128;11.476;2024-02-23T05:15:40;5.30;99.90
12166;DHT22;6146;48.128;11.476;2024-02-23T05:18:06;5.30;99.90
12166;DHT22;6146;48.128;11.476;2024-02-23T05:20:32;5.30;99.90
12166;DHT22;6146;48.128;11.476;2024-02-23T05:22:57;5.20;99.90
12166;DHT22;6146;48.128;11.476;2024-02-23T05:25:23;5.30;99.90
12166;DHT22;6146;48.128;11.476;2024-02-23T05:27:48;5.20;99.90
12166;DHT22;6146;48.128;11.476;2024-02-23T05:30:14;5.20;99.90
12166;DHT22;6146;48.128;11.476;2024-02-23T05:32:39;5.20;99.90
12166;DHT22;6146;48.128;11.476;2024-02-23T05:35:06;5.20;99.90
12166;DHT22;6146;48.128;11.476;2024-02-23T05:37:31;5.20;99.90
12166;DHT22;6146;48.128;11.476;2024-02-23T05:39:57;5.20;99.90
12166;DHT22;6146;48.128;11.476;2024-02-23T05:42:25;5.20;99.90
12166;DHT22;6146;48.128;11.476;2024-02-23T05:44:51;5.30;99.90
12166;DHT22;6146;48.128;11.476;2024-02-23T05:47:16;5.40;99.90
12166;DHT22;6146;48.128;11.476;2024-02-23T05:49:43;5.20;99.90
12166;DHT22;6146;48.128;11.476;2024-02-23T05:52:08;5.20;99.90
12166;DHT22;6146;48.128;11.476;2024-02-23T05:54:35;5.20;99.90
12166;DHT22;6146;48.128;11.476;2024-02-23T05:57:00;5.20;99.90
12166;DHT22;6146;48.128;11.476;2024-02-23T05:59:26;5.20;99.90
12166;DHT22;6146;48.128;11.476;2024-02-23T06:01:52;5.20;99.90
12166;DHT22;6146;48.128;11.476;2024-02-23T06:04:22;5.20;99.90
12166;DHT22;6146;48.128;11.476;2024-02-23T06:06:48;5.20;99.90
12166;DHT22;6146;48.128;11.476;2024-02-23T06:09:13;5.20;99.90
12166;DHT22;6146;48.128;11.476;2024-02-23T06:11:39;5.20;99.90
12166;DHT22;6146;48.128;11.476;2024-02-23T06:14:04;5.20;99.90
12166;DHT22;6146;48.128;11.476;2024-02-23T06:16:30;5.20;99.90
12166;DHT22;6146;48.128;11.476;2024-02-23T06:18:55;5.20;99.90
12166;DHT22;6146;48.128;11.476;2024-02-23T06:21:21;5.20;99.90
12166;DHT22;6146;48.128;11.476;2024-02-23T06:23:46;5.20;99.90
12166;DHT22;6146;48.128;11.476;2024-02-23T06:26:12;5.20;99.90
12166;DHT22;6146;48.128;11.476;2024-02-23T06:28:38;5.20;99.90
12166;DHT22;6146;48.128;11.476;2024-02-23T06:31:07;5.20;99.90
12166;DHT22;6146;48.128;11.476;2024-02-23T06:33:32;5.20;99.90
12166;DHT22;6146;48.128;11.476;2024-02-23T06:35:58;5.20;99.90
12166;DHT22;6146;48.128;11.476;2024-02-23T06:38:24;5.30;99.90
12166;DHT22;6146;48.128;11.476;2024-02-23T06:40:49;5.30;99.90
12166;DHT22;6146;48.128;11.476;2024-02-23T06:43:15;5.30;99.90
12166;DHT22;6146;48.128;11.476;2024-02-23T06:45:41;5.30;99.90
12166;DHT22;6146;48.128;11.476;2024-02-23T06:48:07;4.50;99.90
12166;DHT22;6146;48.128;11.476;2024-02-23T06:50:32;5.40;99.90
12166;DHT22;6146;48.128;11.476;2024-02-23T06:52:58;5.50;99.90
12166;DHT22;6146;48.128;11.476;2024-02-23T06:55:23;5.50;99.90
12166;DHT22;6146;48.128;11.476;2024-02-23T06:57:49;5.50;99.90
12166;DHT22;6146;48.128;11.476;2024-02-23T07:00:15;5.50;99.90
12166;DHT22;6146;48.128;11.476;2024-02-23T07:02:41;5.50;99.90
12166;DHT22;6146;48.128;11.476;2024-02-23T07:05:07;5.50;99.90
12166;DHT22;6146;48.128;11.476;2024-02-23T07:07:33;5.50;99.90
12166;DHT22;6146;48.128;11.476;2024-02-23T07:10:00;5.60;99.90
12166;DHT22;6146;48.128;11.476;2024-02-23T07:12:26;5.60;99.90
12166;DHT22;6146;48.128;11.476;2024-02-23T07:14:55;5.60;99.90
12166;DHT22;6146;48.128;11.476;2024-02-23T07:17:21;5.70;99.90
12166;DHT22;6146;48.128;11.476;2024-02-23T07:19:46;5.60;99.90
12166;DHT22;6146;48.128;11.476;2024-02-23T07:22:13;5.60;99.90
12166;DHT22;6146;48.128;11.476;2024-02-23T07:24:42;5.50;99.90
12166;DHT22;6146;48.128;11.476;2024-02-23T07:27:08;5.60;99.90
12166;DHT22;6146;48.128;11.476;2024-02-23T07:29:33;5.60;99.90
12166;DHT22;6146;48.128;11.476;2024-02-23T07:31:59;5.60;99.90
12166;DHT22;6146;48.128;11.476;2024-02-23T07:34:24;5.60;99.90
12166;DHT22;6146;48.128;11.476;2024-02-23T07:36:53;5.60;99.90
12166;DHT22;6146;48.128;11.476;2024-02-23T07:39:20;5.60;99.90
12166;DHT22;6146;48.128;11.476;2024-02-23T07:41:46;5.50;99.90
12166;DHT22;6146;48.128;11.476;2024-02-23T07:44:12;6.70;99.90
12166;DHT22;6146;48.128;11.476;2024-02-23T07:46:37;5.60;99.90
12166;DHT22;6146;48.128;11.476;2024-02-23T07:49:04;5.60;99.90
12166;DHT22;6146;48.128;11.476;2024-02-23T07:51:30;5.60;99.90
12166;DHT22;6146;48.128;11.476;2024-02-23T07:53:55;5.70;99.90
12166;DHT22;6146;48.128;11.476;2024-02-23T07:56:21;5.80;99.90
12166;DHT22;6146;48.128;11.476;2024-02-23T07:58:46;5.80;99.90
12166;DHT22;6146;48.128;11.476;2024-02-23T08:01:14;5.80;99.90
12166;DHT22;6146;48.128;11.476;2024-02-23T08:03:40;5.90;99.90
12166;DHT22;6146;48.128;11.476;2024-02-23T08:06:06;6.00;99.90
12166;DHT22;6146;48.128;11.476;2024-02-23T08:08:32;6.00;99.90
12166;DHT22;6146;48.128;11.476;2024-02-23T08:11:01;6.10;99.90
12166;DHT22;6146;48.128;11.476;2024-02-23T08:13:27;6.20;99.90
12166;DHT22;6146;48.128;11.476;2024-02-23T08:15:53;6.20;99.90
12166;DHT22;6146;48.128;11.476;2024-02-23T08:18:18;6.10;99.90
12166;DHT22;6146;48.128;11.476;2024-02-23T08:20:44;6.10;99.90
12166;DHT22;6146;48.128;11.476;2024-02-23T08:23:10;6.20;99.90
12166;DHT22;6146;48.128;11.476;2024-02-23T08:25:36;6.20;99.90
12166;DHT22;6146;48.128;11.476;2024-02-23T08:28:01;6.30;99.90
12166;DHT22;6146;48.128;11.476;2024-02-23T08:30:27;6.40;99.90
12166;DHT22;6146;48.128;11.476;2024-02-23T08:32:53;6.50;99.90
12166;DHT22;6146;48.128;11.476;2024-02-23T08:35:18;6.70;99.90
12166;DHT22;6146;48.128;11.476;2024-02-23T08:37:44;6.80;99.90
12166;DHT22;6146;48.128;11.476;2024-02-23T08:40:10;6.80;99.90
12166;DHT22;6146;48.128;11.476;2024-02-23T08:42:36;6.80;99.90
12166;DHT22;6146;48.128;11.476;2024-02-23T08:45:02;6.80;99.90
12166;DHT22;6146;48.128;11.476;2024-02-23T08:47:28;7.00;99.90
12166;DHT22;6146;48.128;11.476;2024-02-23T08:49:57;7.00;99.90
12166;DHT22;6146;48.128;11.476;2024-02-23T08:52:23;7.00;99.90
12166;DHT22;6146;48.128;11.476;2024-02-23T08:54:49;6.90;99.90
12166;DHT22;6146;48.128;11.476;2024-02-23T08:57:14;6.80;99.90
12166;DHT22;6146;48.128;11.476;2024-02-23T08:59:45;6.80;99.90
12166;DHT22;6146;48.128;11.476;2024-02-23T09:02:11;6.70;99.90
12166;DHT22;6146;48.128;11.476;2024-02-23T09:04:37;6.60;99.90
12166;DHT22;6146;48.128;11.476;2024-02-23T09:07:02;6.50;99.90
12166;DHT22;6146;48.128;11.476;2024-02-23T09:09:28;6.60;99.90
12166;DHT22;6146;48.128;11.476;2024-02-23T09:11:54;6.50;99.90
12166;DHT22;6146;48.128;11.476;2024-02-23T09:14:19;6.60;99.90
12166;DHT22;6146;48.128;11.476;2024-02-23T09:16:45;6.60;99.90
12166;DHT22;6146;48.128;11.476;2024-02-23T09:19:16;6.60;99.90
12166;DHT22;6146;48.128;11.476;2024-02-23T09:21:41;6.60;99.90
12166;DHT22;6146;48.128;11.476;2024-02-23T09:24:07;6.50;99.90
12166;DHT22;6146;48.128;11.476;2024-02-23T09:26:33;6.50;99.90
12166;DHT22;6146;48.128;11.476;2024-02-23T09:28:58;6.50;99.90
12166;DHT22;6146;48.128;11.476;2024-02-23T09:31:24;6.40;99.90
12166;DHT22;6146;48.128;11.476;2024-02-23T09:33:49;6.40;99.90
12166;DHT22;6146;48.128;11.476;2024-02-23T09:36:17;6.50;99.90
12166;DHT22;6146;48.128;11.476;2024-02-23T09:38:42;6.50;99.90
12166;DHT22;6146;48.128;11.476;2024-02-23T09:41:18;6.50;99.90
12166;DHT22;6146;48.128;11.476;2024-02-23T09:43:44;6.50;99.90
12166;DHT22;6146;48.128;11.476;2024-02-23T09:46:11;6.50;99.90
12166;DHT22;6146;48.128;11.476;2024-02-23T09:48:38;6.40;99.90
12166;DHT22;6146;48.128;11.476;2024-02-23T09:51:05;6.40;99.90
12166;DHT22;6146;48.128;11.476;2024-02-23T09:53:31;6.40;99.90
12166;DHT22;6146;48.128;11.476;2024-02-23T09:55:58;6.40;99.90
12166;DHT22;6146;48.128;11.476;2024-02-23T09:58:24;6.50;99.90
12166;DHT22;6146;48.128;11.476;2024-02-23T10:00:52;6.40;99.90
12166;DHT22;6146;48.128;11.476;2024-02-23T10:03:18;6.40;99.90
12166;DHT22;6146;48.128;11.476;2024-02-23T10:05:43;6.40;99.90
12166;DHT22;6146;48.128;11.476;2024-02-23T10:08:10;6.40;99.90
12166;DHT22;6146;48.128;11.476;2024-02-23T10:10:37;6.40;99.90
12166;DHT22;6146;48.128;11.476;2024-02-23T10:13:02;6.40;99.90
12166;DHT22;6146;48.128;11.476;2024-02-23T10:15:31;6.30;99.90
12166;DHT22;6146;48.128;11.476;2024-02-23T10:17:57;6.30;99.90
12166;DHT22;6146;48.128;11.476;2024-02-23T10:20:22;6.40;99.90
12166;DHT22;6146;48.128;11.476;2024-02-23T10:22:48;6.40;99.90
12166;DHT22;6146;48.128;11.476;2024-02-23T10:25:14;6.40;99.90
12166;DHT22;6146;48.128;11.476;2024-02-23T10:27:41;6.60;99.90
12166;DHT22;6146;48.128;11.476;2024-02-23T10:30:08;6.60;99.90
12166;DHT22;6146;48.128;11.476;2024-02-23T10:32:38;6.60;99.90
12166;DHT22;6146;48.128;11.476;2024-02-23T10:35:09;6.70;99.90
12166;DHT22;6146;48.128;11.476;2024-02-23T10:37:36;6.80;99.90
12166;DHT22;6146;48.128;11.476;2024-02-23T10:40:01;6.90;99.90
12166;DHT22;6146;48.128;11.476;2024-02-23T10:42:33;7.00;99.90
12166;DHT22;6146;48.128;11.476;2024-02-23T10:44:59;7.10;99.90
12166;DHT22;6146;48.128;11.476;2024-02-23T10:47:26;7.30;99.90
12166;DHT22;6146;48.128;11.476;2024-02-23T10:49:54;7.30;99.90
12166;DHT22;6146;48.128;11.476;2024-02-23T10:52:22;7.30;99.90
12166;DHT22;6146;48.128;11.476;2024-02-23T10:54:49;7.30;99.90
12166;DHT22;6146;48.128;11.476;2024-02-23T10:57:17;7.30;99.90
12166;DHT22;6146;48.128;11.476;2024-02-23T10:59:47;7.00;99.90
12166;DHT22;6146;48.128;11.476;2024-02-23T11:02:19;6.80;99.90
12166;DHT22;6146;48.128;11.476;2024-02-23T11:04:49;6.80;99.90
12166;DHT22;6146;48.128;11.476;2024-02-23T11:07:18;6.70;99.90
12166;DHT22;6146;48.128;11.476;2024-02-23T11:09:49;6.60;99.90
12166;DHT22;6146;48.128;11.476;2024-02-23T11:12:22;6.60;99.90
12166;DHT22;6146;48.128;11.476;2024-02-23T11:14:49;6.50;99.90
12166;DHT22;6146;48.128;11.476;2024-02-23T11:17:19;6.50;99.90
12166;DHT22;6146;48.128;11.476;2024-02-23T11:19:49;5.60;99.90
12166;DHT22;6146;48.128;11.476;2024-02-23T11:22:44;6.50;99.90
12166;DHT22;6146;48.128;11.476;2024-02-23T11:25:09;6.40;99.90
12166;DHT22;6146;48.128;11.476;2024-02-23T11:27:36;6.40;99.90
12166;DHT22;6146;48.128;11.476;2024-02-23T11:30:22;6.40;99.90
12166;DHT22;6146;48.128;11.476;2024-02-23T11:32:48;4.80;99.90
12166;DHT22;6146;48.128;11.476;2024-02-23T11:35:15;6.40;99.90
12166;DHT22;6146;48.128;11.476;2024-02-23T11:37:48;6.30;99.90
12166;DHT22;6146;48.128;11.476;2024-02-23T11:40:15;6.30;99.90
12166;DHT22;6146;48.128;11.476;2024-02-23T11:42:42;6.20;99.90
12166;DHT22;6146;48.128;11.476;2024-02-23T11:45:08;6.30;99.90
12166;DHT22;6146;48.128;11.476;2024-02-23T11:47:34;6.20;99.90
12166;DHT22;6146;48.128;11.476;2024-02-23T11:50:00;6.30;99.90
12166;DHT22;6146;48.128;11.476;2024-02-23T11:52:26;6.40;99.90
12166;DHT22;6146;48.128;11.476;2024-02-23T11:54:51;6.40;99.90
12166;DHT22;6146;48.128;11.476;2024-02-23T11:57:18;6.50;99.90
12166;DHT22;6146;48.128;11.476;2024-02-23T11:59:44;6.40;99.90
12166;DHT22;6146;48.128;11.476;2024-02-23T12:02:09;6.30;99.90
12166;DHT22;6146;48.128;11.476;2024-02-23T12:04:35;6.20;99.90
12166;DHT22;6146;48.128;11.476;2024-02-23T12:07:00;6.10;99.90
12166;DHT22;6146;48.128;11.476;2024-02-23T12:09:26;6.20;99.90
12166;DHT22;6146;48.128;11.476;2024-02-23T12:11:52;6.10;99.90
12166;DHT22;6146;48.128;11.476;2024-02-23T12:14:18;6.20;99.90
12166;DHT22;6146;48.128;11.476;2024-02-23T12:16:45;6.10;99.90
12166;DHT22;6146;48.128;11.476;2024-02-23T12:19:10;5.80;99.90
12166;DHT22;6146;48.128;11.476;2024-02-23T12:21:36;5.70;99.90
12166;DHT22;6146;48.128;11.476;2024-02-23T12:24:04;5.60;99.90
12166;DHT22;6146;48.128;11.476;2024-02-23T12:26:31;5.70;99.90
12166;DHT22;6146;48.128;11.476;2024-02-23T12:29:01;5.70;99.90
12166;DHT22;6146;48.128;11.476;2024-02-23T12:31:28;5.70;99.90
12166;DHT22;6146;48.128;11.476;2024-02-23T12:33:53;5.70;99.90
12166;DHT22;6146;48.128;11.476;2024-02-23T12:36:19;5.70;99.90
12166;DHT22;6146;48.128;11.476;2024-02-23T12:38:45;5.90;99.90
12166;DHT22;6146;48.128;11.476;2024-02-23T12:41:11;5.90;99.90
12166;DHT22;6146;48.128;11.476;2024-02-23T12:43:37;5.90;99.90
12166;DHT22;6146;48.128;11.476;2024-02-23T12:46:02;6.00;99.90
12166;DHT22;6146;48.128;11.476;2024-02-23T12:48:28;5.90;99.90
12166;DHT22;6146;48.128;11.476;2024-02-23T12:50:54;6.00;99.90
12166;DHT22;6146;48.128;11.476;2024-02-23T12:53:38;6.00;99.90
12166;DHT22;6146;48.128;11.476;2024-02-23T12:56:06;5.90;99.90
12166;DHT22;6146;48.128;11.476;2024-02-23T12:58:41;5.80;99.90
12166;DHT22;6146;48.128;11.476;2024-02-23T13:01:07;5.80;99.90
12166;DHT22;6146;48.128;11.476;2024-02-23T13:03:34;5.80;99.90
12166;DHT22;6146;48.128;11.476;2024-02-23T13:06:01;5.90;99.90
12166;DHT22;6146;48.128;11.476;2024-02-23T13:08:27;5.80;99.90
12166;DHT22;6146;48.128;11.476;2024-02-23T13:10:54;5.80;99.90
12166;DHT22;6146;48.128;11.476;2024-02-23T13:13:21;5.80;99.90
12166;DHT22;6146;48.128;11.476;2024-02-23T13:15:47;5.80;99.90
12166;DHT22;6146;48.128;11.476;2024-02-23T13:18:13;5.90;99.90
12166;DHT22;6146;48.128;11.476;2024-02-23T13:20:39;5.90;99.90
12166;DHT22;6146;48.128;11.476;2024-02-23T13:23:07;5.80;99.90
12166;DHT22;6146;48.128;11.476;2024-02-23T13:25:34;5.70;99.90
12166;DHT22;6146;48.128;11.476;2024-02-23T13:28:00;5.70;99.90
12166;DHT22;6146;48.128;11.476;2024-02-23T13:30:25;6.10;99.90
12166;DHT22;6146;48.128;11.476;2024-02-23T13:32:51;5.60;99.90
12166;DHT22;6146;48.128;11.476;2024-02-23T13:35:17;5.50;99.90
12166;DHT22;6146;48.128;11.476;2024-02-23T13:37:43;5.50;99.90
12166;DHT22;6146;48.128;11.476;2024-02-23T13:40:09;5.50;99.90
12166;DHT22;6146;48.128;11.476;2024-02-23T13:42:36;5.40;99.90
12166;DHT22;6146;48.128;11.476;2024-02-23T13:45:05;5.50;99.90
12166;DHT22;6146;48.128;11.476;2024-02-23T13:47:30;5.60;99.90
12166;DHT22;6146;48.128;11.476;2024-02-23T13:49:56;5.60;99.90
12166;DHT22;6146;48.128;11.476;2024-02-23T13:52:21;3.90;99.90
12166;DHT22;6146;48.128;11.476;2024-02-23T13:54:47;5.70;99.90
12166;DHT22;6146;48.128;11.476;2024-02-23T13:57:12;5.60;99.90
12166;DHT22;6146;48.128;11.476;2024-02-23T13:59:38;5.60;99.90
12166;DHT22;6146;48.128;11.476;2024-02-23T14:02:04;5.50;99.90
12166;DHT22;6146;48.128;11.476;2024-02-23T14:04:29;5.60;99.90
12166;DHT22;6146;48.128;11.476;2024-02-23T14:06:56;5.70;99.90
12166;DHT22;6146;48.128;11.476;2024-02-23T14:09:21;5.60;99.90
12166;DHT22;6146;48.128;11.476;2024-02-23T14:11:47;5.60;99.90
12166;DHT22;6146;48.128;11.476;2024-02-23T14:14:13;5.50;99.90
12166;DHT22;6146;48.128;11.476;2024-02-23T14:16:39;5.50;99.90
12166;DHT22;6146;48.128;11.476;2024-02-23T14:19:05;5.40;99.90
12166;DHT22;6146;48.128;11.476;2024-02-23T14:21:30;5.40;99.90
12166;DHT22;6146;48.128;11.476;2024-02-23T14:23:56;5.40;99.90
12166;DHT22;6146;48.128;11.476;2024-02-23T14:26:22;5.50;99.90
12166;DHT22;6146;48.128;11.476;2024-02-23T14:28:48;5.40;99.90
12166;DHT22;6146;48.128;11.476;2024-02-23T14:31:14;5.40;99.90
12166;DHT22;6146;48.128;11.476;2024-02-23T14:33:40;5.30;99.90
12166;DHT22;6146;48.128;11.476;2024-02-23T14:36:06;5.30;99.90
12166;DHT22;6146;48.128;11.476;2024-02-23T14:38:32;5.30;99.90
12166;DHT22;6146;48.128;11.476;2024-02-23T14:40:57;5.20;99.90
12166;DHT22;6146;48.128;11.476;2024-02-23T14:43:24;5.30;99.90
12166;DHT22;6146;48.128;11.476;2024-02-23T14:45:49;5.20;99.90
12166;DHT22;6146;48.128;11.476;2024-02-23T14:48:18;5.20;99.90
12166;DHT22;6146;48.128;11.476;2024-02-23T14:50:43;5.20;99.90
12166;DHT22;6146;48.128;11.476;2024-02-23T14:53:09;5.30;99.90
12166;DHT22;6146;48.128;11.476;2024-02-23T14:55:35;5.10;99.90
12166;DHT22;6146;48.128;11.476;2024-02-23T14:58:01;5.10;99.90
12166;DHT22;6146;48.128;11.476;2024-02-23T15:00:26;5.00;99.90
12166;DHT22;6146;48.128;11.476;2024-02-23T15:02:55;5.10;99.90
12166;DHT22;6146;48.128;11.476;2024-02-23T15:05:22;5.00;99.90
12166;DHT22;6146;48.128;11.476;2024-02-23T15:07:48;5.10;99.90
12166;DHT22;6146;48.128;11.476;2024-02-23T15:10:13;5.10;99.90
12166;DHT22;6146;48.128;11.476;2024-02-23T15:12:39;5.10;99.90
12166;DHT22;6146;48.128;11.476;2024-02-23T15:15:05;5.10;99.90
12166;DHT22;6146;48.128;11.476;2024-02-23T15:17:32;5.10;99.90
12166;DHT22;6146;48.128;11.476;2024-02-23T15:19:58;5.10;99.90
12166;DHT22;6146;48.128;11.476;2024-02-23T15:22:24;5.20;99.90
12166;DHT22;6146;48.128;11.476;2024-02-23T15:24:51;5.10;99.90
12166;DHT22;6146;48.128;11.476;2024-02-23T15:27:17;5.00;99.90
12166;DHT22;6146;48.128;11.476;2024-02-23T15:29:43;5.00;99.90
12166;DHT22;6146;48.128;11.476;2024-02-23T15:32:09;5.00;99.90
12166;DHT22;6146;48.128;11.476;2024-02-23T15:34:38;5.00;99.90
12166;DHT22;6146;48.128;11.476;2024-02-23T15:37:03;4.90;99.90
12166;DHT22;6146;48.128;11.476;2024-02-23T15:39:29;4.90;99.90